sensor_id;sensor_type;location;lat;lon;timestamp;temperature;humidity
5846;DHT22;2949;50.778;7.094;2022-09-13T00:01:36;16.30;99.90
5846;DHT22;2949;50.778;7.094;2022-09-13T00:04:02;16.30;99.90
5846;DHT22;2949;50.778;7.094;2022-09-13T00:06:28;16.30;99.90
5846;DHT22;2949;50.778;7.094;2022-09-13T00:08:54;16.30;99.90
5846;DHT22;2949;50.778;7.094;2022-09-13T00:11:23;16.30;99.90
5846;DHT22;2949;50.778;7.094;2022-09-13T00:13:50;16.30;99.90
5846;DHT22;2949;50.778;7.094;2022-09-13T00:16:17;16.30;99.90
5846;DHT22;2949;50.778;7.094;2022-09-13T00:18:43;16.40;99.90
5846;DHT22;2949;50.778;7.094;2022-09-13T00:21:14;16.30;99.90
5846;DHT22;2949;50.778;7.094;2022-09-13T00:23:43;16.30;99.90
5846;DHT22;2949;50.778;7.094;2022-09-13T00:26:12;16.30;99.90
5846;DHT22;2949;50.778;7.094;2022-09-13T00:28:38;16.30;99.90
5846;DHT22;2949;50.778;7.094;2022-09-13T00:31:05;16.20;99.90
5846;DHT22;2949;50.778;7.094;2022-09-13T00:33:32;16.20;99.90
5846;DHT22;2949;50.778;7.094;2022-09-13T00:35:58;16.20;99.90
5846;DHT22;2949;50.778;7.094;2022-09-13T00:38:24;16.30;99.90
5846;DHT22;2949;50.778;7.094;2022-09-13T00:40:49;16.30;99.90
5846;DHT22;2949;50.778;7.094;2022-09-13T00:43:20;16.30;99.90
5846;DHT22;2949;50.778;7.094;2022-09-13T00:45:46;16.30;99.90
5846;DHT22;2949;50.778;7.094;2022-09-13T00:48:21;16.20;99.90
5846;DHT22;2949;50.778;7.094;2022-09-13T00:50:52;16.30;99.90
5846;DHT22;2949;50.778;7.094;2022-09-13T00:53:22;16.20;99.90
5846;DHT22;2949;50.778;7.094;2022-09-13T00:56:05;16.20;99.90
5846;DHT22;2949;50.778;7.094;2022-09-13T00:58:37;16.20;99.90
5846;DHT22;2949;50.778;7.094;2022-09-13T01:01:05;16.20;99.90
5846;DHT22;2949;50.778;7.094;2022-09-13T01:03:34;16.20;99.90
5846;DHT22;2949;50.778;7.094;2022-09-13T01:06:04;16.20;99.90
5846;DHT22;2949;50.778;7.094;2022-09-13T01:08:31;16.20;99.90
5846;DHT22;2949;50.778;7.094;2022-09-13T01:10:59;16.20;99.90
5846;DHT22;2949;50.778;7.094;2022-09-13T01:13:29;16.20;99.90
5846;DHT22;2949;50.778;7.094;2022-09-13T01:15:57;16.20;99.90
5846;DHT22;2949;50.778;7.094;2022-09-13T01:18:23;16.20;99.90
5846;DHT22;2949;50.778;7.094;2022-09-13T01:21:28;16.20;99.90
5846;DHT22;2949;50.778;7.094;2022-09-13T01:24:31;16.10;99.90
5846;DHT22;2949;50.778;7.094;2022-09-13T01:30:10;16.10;99.90
5846;DHT22;2949;50.778;7.094;2022-09-13T01:46:41;16.10;99.90
5846;DHT22;2949;50.778;7.094;2022-09-13T01:52:40;15.90;99.90
5846;DHT22;2949;50.778;7.094;2022-09-13T01:55:10;16.00;99.90
5846;DHT22;2949;50.778;7.094;2022-09-13T01:57:45;16.00;99.90
5846;DHT22;2949;50.778;7.094;2022-09-13T02:00:15;16.10;99.90
5846;DHT22;2949;50.778;7.094;2022-09-13T02:02:49;16.20;99.90
5846;DHT22;2949;50.778;7.094;2022-09-13T02:05:17;16.20;99.90
5846;DHT22;2949;50.778;7.094;2022-09-13T02:08:10;16.30;99.90
5846;DHT22;2949;50.778;7.094;2022-09-13T02:10:41;16.40;99.90
5846;DHT22;2949;50.778;7.094;2022-09-13T02:13:17;16.40;99.90
5846;DHT22;2949;50.778;7.094;2022-09-13T02:15:49;16.40;99.90
5846;DHT22;2949;50.778;7.094;2022-09-13T02:18:29;16.40;99.90
5846;DHT22;2949;50.778;7.094;2022-09-13T02:21:00;16.40;99.90
5846;DHT22;2949;50.778;7.094;2022-09-13T02:23:38;16.30;99.90
5846;DHT22;2949;50.778;7.094;2022-09-13T02:26:06;16.30;99.90
5846;DHT22;2949;50.778;7.094;2022-09-13T02:28:39;16.20;99.90
5846;DHT22;2949;50.778;7.094;2022-09-13T02:31:07;16.20;99.90
5846;DHT22;2949;50.778;7.094;2022-09-13T02:33:54;16.20;99.90
5846;DHT22;2949;50.778;7.094;2022-09-13T02:36:27;16.30;99.90
5846;DHT22;2949;50.778;7.094;2022-09-13T02:39:03;16.30;99.90
5846;DHT22;2949;50.778;7.094;2022-09-13T02:44:27;16.30;99.90
5846;DHT22;2949;50.778;7.094;2022-09-13T02:47:04;16.30;99.90
5846;DHT22;2949;50.778;7.094;2022-09-13T02:52:45;16.40;99.90
5846;DHT22;2949;50.778;7.094;2022-09-13T03:00:19;16.60;99.90
5846;DHT22;2949;50.778;7.094;2022-09-13T03:02:46;16.60;99.90
5846;DHT22;2949;50.778;7.094;2022-09-13T03:05:13;16.70;99.90
5846;DHT22;2949;50.778;7.094;2022-09-13T03:07:38;16.70;99.90
5846;DHT22;2949;50.778;7.094;2022-09-13T03:10:09;16.80;99.90
5846;DHT22;2949;50.778;7.094;2022-09-13T03:23:36;16.90;99.90
5846;DHT22;2949;50.778;7.094;2022-09-13T03:26:27;16.80;99.90
5846;DHT22;2949;50.778;7.094;2022-09-13T03:29:16;16.80;99.90
5846;DHT22;2949;50.778;7.094;2022-09-13T03:34:40;16.70;99.90
5846;DHT22;2949;50.778;7.094;2022-09-13T03:40:33;16.60;99.90
5846;DHT22;2949;50.778;7.094;2022-09-13T03:43:12;16.60;99.90
5846;DHT22;2949;50.778;7.094;2022-09-13T03:45:44;16.50;99.90
5846;DHT22;2949;50.778;7.094;2022-09-13T03:48:11;16.50;99.90
5846;DHT22;2949;50.778;7.094;2022-09-13T03:50:38;16.40;99.90
5846;DHT22;2949;50.778;7.094;2022-09-13T03:53:08;16.40;99.90
5846;DHT22;2949;50.778;7.094;2022-09-13T03:55:38;16.30;99.90
5846;DHT22;2949;50.778;7.094;2022-09-13T03:58:04;16.40;99.90
5846;DHT22;2949;50.778;7.094;2022-09-13T04:00:30;16.30;99.90
5846;DHT22;2949;50.778;7.094;2022-09-13T04:02:56;16.30;99.90
5846;DHT22;2949;50.778;7.094;2022-09-13T04:05:21;16.30;99.90
5846;DHT22;2949;50.778;7.094;2022-09-13T04:07:47;16.30;99.90
5846;DHT22;2949;50.778;7.094;2022-09-13T04:10:12;16.20;99.90
5846;DHT22;2949;50.778;7.094;2022-09-13T04:12:38;16.30;99.90
5846;DHT22;2949;50.778;7.094;2022-09-13T04:15:06;16.20;99.90
5846;DHT22;2949;50.778;7.094;2022-09-13T04:17:31;16.20;99.90
5846;DHT22;2949;50.778;7.094;2022-09-13T04:19:57;16.10;99.90
5846;DHT22;2949;50.778;7.094;2022-09-13T04:22:22;16.10;99.90
5846;DHT22;2949;50.778;7.094;2022-09-13T04:24:48;16.10;99.90
5846;DHT22;2949;50.778;7.094;2022-09-13T04:27:13;16.10;99.90
5846;DHT22;2949;50.778;7.094;2022-09-13T04:29:39;16.00;99.90
5846;DHT22;2949;50.778;7.094;2022-09-13T04:32:05;16.00;99.90
5846;DHT22;2949;50.778;7.094;2022-09-13T04:34:30;16.00;99.90
5846;DHT22;2949;50.778;7.094;2022-09-13T04:36:56;15.90;99.90
5846;DHT22;2949;50.778;7.094;2022-09-13T04:39:21;16.00;99.90
5846;DHT22;2949;50.778;7.094;2022-09-13T04:41:48;16.00;99.90
5846;DHT22;2949;50.778;7.094;2022-09-13T04:44:16;16.00;99.90
5846;DHT22;2949;50.778;7.094;2022-09-13T04:46:42;16.00;99.90
5846;DHT22;2949;50.778;7.094;2022-09-13T04:49:11;16.00;99.90
5846;DHT22;2949;50.778;7.094;2022-09-13T04:51:36;16.00;99.90
5846;DHT22;2949;50.778;7.094;2022-09-13T04:54:02;16.00;99.90
5846;DHT22;2949;50.778;7.094;2022-09-13T04:56:28;16.00;99.90
5846;DHT22;2949;50.778;7.094;2022-09-13T04:58:55;16.00;99.90
5846;DHT22;2949;50.778;7.094;2022-09-13T05:01:22;16.00;99.90
5846;DHT22;2949;50.778;7.094;2022-09-13T05:03:49;16.00;99.90
5846;DHT22;2949;50.778;7.094;2022-09-13T05:06:16;16.00;99.90
5846;DHT22;2949;50.778;7.094;2022-09-13T05:08:49;16.00;99.90
5846;DHT22;2949;50.778;7.094;2022-09-13T05:11:16;16.00;99.90
5846;DHT22;2949;50.778;7.094;2022-09-13T05:13:42;16.00;99.90
5846;DHT22;2949;50.778;7.094;2022-09-13T05:16:07;16.00;99.90
5846;DHT22;2949;50.778;7.094;2022-09-13T05:18:35;16.10;99.90
5846;DHT22;2949;50.778;7.094;2022-09-13T05:21:03;16.10;99.90
5846;DHT22;2949;50.778;7.094;2022-09-13T05:23:30;16.20;99.90
5846;DHT22;2949;50.778;7.094;2022-09-13T05:25:58;16.20;99.90
5846;DHT22;2949;50.778;7.094;2022-09-13T05:28:25;16.20;99.90
5846;DHT22;2949;50.778;7.094;2022-09-13T05:33:21;16.30;99.90
5846;DHT22;2949;50.778;7.094;2022-09-13T05:35:46;16.40;99.90
5846;DHT22;2949;50.778;7.094;2022-09-13T05:38:12;16.40;99.90
5846;DHT22;2949;50.778;7.094;2022-09-13T05:40:37;16.50;99.90
5846;DHT22;2949;50.778;7.094;2022-09-13T05:43:03;16.60;99.90
5846;DHT22;2949;50.778;7.094;2022-09-13T05:45:28;16.70;99.90
5846;DHT22;2949;50.778;7.094;2022-09-13T05:47:54;16.60;99.90
5846;DHT22;2949;50.778;7.094;2022-09-13T05:50:19;16.70;99.90
5846;DHT22;2949;50.778;7.094;2022-09-13T05:52:53;16.70;99.90
5846;DHT22;2949;50.778;7.094;2022-09-13T05:55:20;16.70;99.90
5846;DHT22;2949;50.778;7.094;2022-09-13T05:57:47;16.80;99.90
5846;DHT22;2949;50.778;7.094;2022-09-13T06:00:13;16.80;99.90
5846;DHT22;2949;50.778;7.094;2022-09-13T06:02:39;16.90;99.90
5846;DHT22;2949;50.778;7.094;2022-09-13T06:05:04;16.90;99.90
5846;DHT22;2949;50.778;7.094;2022-09-13T06:07:30;17.00;99.90
5846;DHT22;2949;50.778;7.094;2022-09-13T06:09:56;17.00;99.90
5846;DHT22;2949;50.778;7.094;2022-09-13T06:12:22;17.00;99.90
5846;DHT22;2949;50.778;7.094;2022-09-13T06:14:48;17.10;99.90
5846;DHT22;2949;50.778;7.094;2022-09-13T06:17:13;17.10;99.90
5846;DHT22;2949;50.778;7.094;2022-09-13T06:19:39;17.20;99.90
5846;DHT22;2949;50.778;7.094;2022-09-13T06:22:05;17.30;99.90
5846;DHT22;2949;50.778;7.094;2022-09-13T06:24:31;17.50;99.90
5846;DHT22;2949;50.778;7.094;2022-09-13T06:26:57;17.60;99.90
5846;DHT22;2949;50.778;7.094;2022-09-13T06:29:22;17.70;99.90
5846;DHT22;2949;50.778;7.094;2022-09-13T06:31:48;17.80;99.90
5846;DHT22;2949;50.778;7.094;2022-09-13T06:34:13;17.90;99.90
5846;DHT22;2949;50.778;7.094;2022-09-13T06:36:40;18.00;99.90
5846;DHT22;2949;50.778;7.094;2022-09-13T06:39:06;18.20;99.90
5846;DHT22;2949;50.778;7.094;2022-09-13T06:41:32;18.20;99.90
5846;DHT22;2949;50.778;7.094;2022-09-13T06:43:59;18.30;99.90
5846;DHT22;2949;50.778;7.094;2022-09-13T06:46:30;18.40;99.90
5846;DHT22;2949;50.778;7.094;2022-09-13T06:49:01;18.40;99.90
5846;DHT22;2949;50.778;7.094;2022-09-13T06:51:28;18.40;99.90
5846;DHT22;2949;50.778;7.094;2022-09-13T06:53:57;18.40;99.90
5846;DHT22;2949;50.778;7.094;2022-09-13T06:56:28;18.50;99.90
5846;DHT22;2949;50.778;7.094;2022-09-13T06:58:59;18.70;99.90
5846;DHT22;2949;50.778;7.094;2022-09-13T07:01:31;18.70;99.90
5846;DHT22;2949;50.778;7.094;2022-09-13T07:04:00;18.80;99.90
5846;DHT22;2949;50.778;7.094;2022-09-13T07:06:28;18.80;99.90
5846;DHT22;2949;50.778;7.094;2022-09-13T07:08:55;18.80;99.90
5846;DHT22;2949;50.778;7.094;2022-09-13T07:11:23;18.90;99.90
5846;DHT22;2949;50.778;7.094;2022-09-13T07:13:49;18.90;99.90
5846;DHT22;2949;50.778;7.094;2022-09-13T07:16:15;19.00;99.90
5846;DHT22;2949;50.778;7.094;2022-09-13T07:18:41;19.00;99.90
5846;DHT22;2949;50.778;7.094;2022-09-13T07:21:08;19.10;99.90
5846;DHT22;2949;50.778;7.094;2022-09-13T07:23:36;19.20;99.90
5846;DHT22;2949;50.778;7.094;2022-09-13T07:26:03;19.40;99.90
5846;DHT22;2949;50.778;7.094;2022-09-13T07:28:40;19.50;99.90
5846;DHT22;2949;50.778;7.094;2022-09-13T07:31:12;19.70;99.90
5846;DHT22;2949;50.778;7.094;2022-09-13T07:33:39;19.80;99.90
5846;DHT22;2949;50.778;7.094;2022-09-13T07:36:05;20.10;99.90
5846;DHT22;2949;50.778;7.094;2022-09-13T07:38:49;20.30;99.90
5846;DHT22;2949;50.778;7.094;2022-09-13T07:41:17;20.70;99.90
5846;DHT22;2949;50.778;7.094;2022-09-13T07:43:43;21.20;99.90
5846;DHT22;2949;50.778;7.094;2022-09-13T07:46:11;22.10;99.90
5846;DHT22;2949;50.778;7.094;2022-09-13T07:48:39;22.80;99.90
5846;DHT22;2949;50.778;7.094;2022-09-13T07:51:12;23.50;99.90
5846;DHT22;2949;50.778;7.094;2022-09-13T07:53:39;23.80;99.90
5846;DHT22;2949;50.778;7.094;2022-09-13T07:56:13;23.80;99.90
5846;DHT22;2949;50.778;7.094;2022-09-13T07:58:40;23.80;99.90
5846;DHT22;2949;50.778;7.094;2022-09-13T08:01:14;24.00;99.90
5846;DHT22;2949;50.778;7.094;2022-09-13T08:03:41;24.50;99.90
5846;DHT22;2949;50.778;7.094;2022-09-13T08:06:07;25.40;99.90
5846;DHT22;2949;50.778;7.094;2022-09-13T08:08:34;26.00;99.90
5846;DHT22;2949;50.778;7.094;2022-09-13T08:11:01;26.90;99.90
5846;DHT22;2949;50.778;7.094;2022-09-13T08:13:27;27.50;96.90
5846;DHT22;2949;50.778;7.094;2022-09-13T08:15:54;27.40;96.00
5846;DHT22;2949;50.778;7.094;2022-09-13T08:18:20;27.40;94.80
5846;DHT22;2949;50.778;7.094;2022-09-13T08:20:45;27.10;95.70
5846;DHT22;2949;50.778;7.094;2022-09-13T08:23:12;26.60;96.40
5846;DHT22;2949;50.778;7.094;2022-09-13T08:25:38;26.50;96.80
5846;DHT22;2949;50.778;7.094;2022-09-13T08:28:09;26.60;96.30
5846;DHT22;2949;50.778;7.094;2022-09-13T08:30:37;27.00;96.50
5846;DHT22;2949;50.778;7.094;2022-09-13T08:33:04;27.40;94.50
5846;DHT22;2949;50.778;7.094;2022-09-13T08:35:30;27.70;94.50
5846;DHT22;2949;50.778;7.094;2022-09-13T08:37:56;28.20;93.10
5846;DHT22;2949;50.778;7.094;2022-09-13T08:40:24;29.00;91.10
5846;DHT22;2949;50.778;7.094;2022-09-13T08:45:30;30.50;86.30
5846;DHT22;2949;50.778;7.094;2022-09-13T08:48:00;31.00;81.40
5846;DHT22;2949;50.778;7.094;2022-09-13T08:50:33;31.30;78.30
5846;DHT22;2949;50.778;7.094;2022-09-13T08:53:07;31.30;75.80
5846;DHT22;2949;50.778;7.094;2022-09-13T08:55:47;31.10;75.10
5846;DHT22;2949;50.778;7.094;2022-09-13T08:58:44;30.80;78.60
5846;DHT22;2949;50.778;7.094;2022-09-13T09:04:12;31.70;72.20
5846;DHT22;2949;50.778;7.094;2022-09-13T09:06:40;31.90;72.80
5846;DHT22;2949;50.778;7.094;2022-09-13T09:09:12;32.20;71.50
5846;DHT22;2949;50.778;7.094;2022-09-13T09:14:22;33.00;67.70
5846;DHT22;2949;50.778;7.094;2022-09-13T09:17:04;33.10;68.30
5846;DHT22;2949;50.778;7.094;2022-09-13T09:22:03;32.70;64.80
5846;DHT22;2949;50.778;7.094;2022-09-13T09:24:33;32.20;67.50
5846;DHT22;2949;50.778;7.094;2022-09-13T09:27:01;31.80;68.60
5846;DHT22;2949;50.778;7.094;2022-09-13T09:29:35;31.40;71.00
5846;DHT22;2949;50.778;7.094;2022-09-13T09:35:11;31.40;71.90
5846;DHT22;2949;50.778;7.094;2022-09-13T09:37:45;31.80;69.70
5846;DHT22;2949;50.778;7.094;2022-09-13T09:40:14;32.10;67.40
5846;DHT22;2949;50.778;7.094;2022-09-13T09:42:47;32.00;68.60
5846;DHT22;2949;50.778;7.094;2022-09-13T09:45:29;31.90;67.20
5846;DHT22;2949;50.778;7.094;2022-09-13T09:47:59;32.00;64.10
5846;DHT22;2949;50.778;7.094;2022-09-13T09:50:30;31.80;66.00
5846;DHT22;2949;50.778;7.094;2022-09-13T09:53:05;32.20;63.70
5846;DHT22;2949;50.778;7.094;2022-09-13T09:55:36;32.40;65.10
5846;DHT22;2949;50.778;7.094;2022-09-13T09:58:08;32.90;63.00
5846;DHT22;2949;50.778;7.094;2022-09-13T10:00:36;33.60;61.80
5846;DHT22;2949;50.778;7.094;2022-09-13T10:03:17;34.10;60.50
5846;DHT22;2949;50.778;7.094;2022-09-13T10:05:45;34.20;58.70
5846;DHT22;2949;50.778;7.094;2022-09-13T10:08:27;34.30;58.20
5846;DHT22;2949;50.778;7.094;2022-09-13T10:10:56;34.40;57.80
5846;DHT22;2949;50.778;7.094;2022-09-13T10:13:24;34.20;58.80
5846;DHT22;2949;50.778;7.094;2022-09-13T10:15:58;33.90;59.10
5846;DHT22;2949;50.778;7.094;2022-09-13T10:18:28;33.20;58.90
5846;DHT22;2949;50.778;7.094;2022-09-13T10:23:44;32.80;59.90
5846;DHT22;2949;50.778;7.094;2022-09-13T10:26:14;33.20;59.50
5846;DHT22;2949;50.778;7.094;2022-09-13T10:28:53;33.40;58.80
5846;DHT22;2949;50.778;7.094;2022-09-13T10:31:28;33.50;58.80
5846;DHT22;2949;50.778;7.094;2022-09-13T10:36:27;33.50;59.40
5846;DHT22;2949;50.778;7.094;2022-09-13T10:41:29;32.70;59.60
5846;DHT22;2949;50.778;7.094;2022-09-13T10:43:57;32.00;60.60
5846;DHT22;2949;50.778;7.094;2022-09-13T10:46:24;31.50;60.10
5846;DHT22;2949;50.778;7.094;2022-09-13T10:48:51;31.20;61.70
5846;DHT22;2949;50.778;7.094;2022-09-13T10:54:16;30.30;65.90
5846;DHT22;2949;50.778;7.094;2022-09-13T10:56:42;30.00;67.10
5846;DHT22;2949;50.778;7.094;2022-09-13T10:59:23;30.00;67.50
5846;DHT22;2949;50.778;7.094;2022-09-13T11:05:16;30.20;66.60
5846;DHT22;2949;50.778;7.094;2022-09-13T11:08:06;30.50;65.20
5846;DHT22;2949;50.778;7.094;2022-09-13T11:16:05;30.40;66.60
5846;DHT22;2949;50.778;7.094;2022-09-13T11:18:52;30.60;65.70
5846;DHT22;2949;50.778;7.094;2022-09-13T11:24:28;30.50;66.90
5846;DHT22;2949;50.778;7.094;2022-09-13T11:30:04;30.60;67.00
5846;DHT22;2949;50.778;7.094;2022-09-13T11:32:58;30.90;66.00
5846;DHT22;2949;50.778;7.094;2022-09-13T11:35:53;30.50;67.10
5846;DHT22;2949;50.778;7.094;2022-09-13T11:51:56;30.50;65.80
5846;DHT22;2949;50.778;7.094;2022-09-13T11:57:34;30.30;66.10
5846;DHT22;2949;50.778;7.094;2022-09-13T12:00:21;30.20;66.40
5846;DHT22;2949;50.778;7.094;2022-09-13T12:03:16;29.80;66.30
5846;DHT22;2949;50.778;7.094;2022-09-13T12:05:51;29.80;67.70
5846;DHT22;2949;50.778;7.094;2022-09-13T12:08:22;29.70;68.70
5846;DHT22;2949;50.778;7.094;2022-09-13T12:10:52;29.40;68.40
5846;DHT22;2949;50.778;7.094;2022-09-13T12:13:44;29.20;70.80
5846;DHT22;2949;50.778;7.094;2022-09-13T12:16:17;29.00;70.00
5846;DHT22;2949;50.778;7.094;2022-09-13T12:18:51;29.00;70.20
5846;DHT22;2949;50.778;7.094;2022-09-13T12:21:23;29.20;69.90
5846;DHT22;2949;50.778;7.094;2022-09-13T12:24:13;29.20;69.40
5846;DHT22;2949;50.778;7.094;2022-09-13T12:26:55;29.30;70.90
5846;DHT22;2949;50.778;7.094;2022-09-13T12:29:42;29.30;69.90
5846;DHT22;2949;50.778;7.094;2022-09-13T12:32:09;29.50;68.20
5846;DHT22;2949;50.778;7.094;2022-09-13T12:34:57;29.50;69.10
5846;DHT22;2949;50.778;7.094;2022-09-13T12:37:53;29.40;68.90
5846;DHT22;2949;50.778;7.094;2022-09-13T12:41:01;29.10;71.30
5846;DHT22;2949;50.778;7.094;2022-09-13T12:46:37;28.90;72.50
5846;DHT22;2949;50.778;7.094;2022-09-13T12:49:17;29.00;73.00
5846;DHT22;2949;50.778;7.094;2022-09-13T12:57:32;28.90;73.70
5846;DHT22;2949;50.778;7.094;2022-09-13T13:00:16;28.90;74.60
5846;DHT22;2949;50.778;7.094;2022-09-13T13:02:51;28.50;72.70
5846;DHT22;2949;50.778;7.094;2022-09-13T13:05:26;28.50;73.70
5846;DHT22;2949;50.778;7.094;2022-09-13T13:08:05;28.70;73.80
5846;DHT22;2949;50.778;7.094;2022-09-13T13:10:33;28.90;74.40
5846;DHT22;2949;50.778;7.094;2022-09-13T13:18:20;28.60;74.80
5846;DHT22;2949;50.778;7.094;2022-09-13T13:21:03;28.50;74.80
5846;DHT22;2949;50.778;7.094;2022-09-13T13:23:32;28.40;75.20
5846;DHT22;2949;50.778;7.094;2022-09-13T13:36:31;28.10;79.10
5846;DHT22;2949;50.778;7.094;2022-09-13T13:41:59;28.30;78.20
5846;DHT22;2949;50.778;7.094;2022-09-13T14:08:31;29.30;75.20
5846;DHT22;2949;50.778;7.094;2022-09-13T14:16:36;28.90;76.70
5846;DHT22;2949;50.778;7.094;2022-09-13T14:21:31;28.40;78.50
5846;DHT22;2949;50.778;7.094;2022-09-13T14:24:15;28.20;78.10
5846;DHT22;2949;50.778;7.094;2022-09-13T14:26:51;28.10;78.60
5846;DHT22;2949;50.778;7.094;2022-09-13T14:29:22;28.00;80.00
5846;DHT22;2949;50.778;7.094;2022-09-13T14:31:52;28.00;79.10
5846;DHT22;2949;50.778;7.094;2022-09-13T14:34:28;27.90;79.80
5846;DHT22;2949;50.778;7.094;2022-09-13T14:36:57;27.70;80.70
5846;DHT22;2949;50.778;7.094;2022-09-13T14:39:24;27.70;80.30
5846;DHT22;2949;50.778;7.094;2022-09-13T14:42:05;27.60;80.80
5846;DHT22;2949;50.778;7.094;2022-09-13T14:44:35;27.50;81.90
5846;DHT22;2949;50.778;7.094;2022-09-13T14:47:17;27.40;84.20
5846;DHT22;2949;50.778;7.094;2022-09-13T14:49:50;27.40;83.80
5846;DHT22;2949;50.778;7.094;2022-09-13T14:52:25;27.40;83.20
5846;DHT22;2949;50.778;7.094;2022-09-13T14:54:56;27.30;84.10
5846;DHT22;2949;50.778;7.094;2022-09-13T14:57:29;27.20;85.70
5846;DHT22;2949;50.778;7.094;2022-09-13T15:00:06;27.10;85.20
5846;DHT22;2949;50.778;7.094;2022-09-13T15:02:39;27.00;85.80
5846;DHT22;2949;50.778;7.094;2022-09-13T15:05:12;26.80;84.70
5846;DHT22;2949;50.778;7.094;2022-09-13T15:07:40;26.70;85.70
5846;DHT22;2949;50.778;7.094;2022-09-13T15:12:34;26.60;86.30
5846;DHT22;2949;50.778;7.094;2022-09-13T15:20:27;26.60;85.60
5846;DHT22;2949;50.778;7.094;2022-09-13T15:22:54;26.60;85.50
5846;DHT22;2949;50.778;7.094;2022-09-13T15:25:29;26.60;86.60
5846;DHT22;2949;50.778;7.094;2022-09-13T15:27:56;26.60;87.50
5846;DHT22;2949;50.778;7.094;2022-09-13T15:30:28;26.60;88.00
5846;DHT22;2949;50.778;7.094;2022-09-13T15:35:43;26.40;91.20
5846;DHT22;2949;50.778;7.094;2022-09-13T15:38:17;26.30;92.40
5846;DHT22;2949;50.778;7.094;2022-09-13T15:40:46;26.10;93.00
5846;DHT22;2949;50.778;7.094;2022-09-13T15:43:12;26.00;93.80
5846;DHT22;2949;50.778;7.094;2022-09-13T15:45:37;25.80;94.50
5846;DHT22;2949;50.778;7.094;2022-09-13T15:48:03;25.70;95.10
5846;DHT22;2949;50.778;7.094;2022-09-13T15:50:30;25.60;95.80
5846;DHT22;2949;50.778;7.094;2022-09-13T15:52:58;25.60;96.30
5846;DHT22;2949;50.778;7.094;2022-09-13T15:55:25;25.50;97.00
5846;DHT22;2949;50.778;7.094;2022-09-13T15:57:51;25.40;97.50
5846;DHT22;2949;50.778;7.094;2022-09-13T16:00:25;25.40;97.90
5846;DHT22;2949;50.778;7.094;2022-09-13T16:02:51;25.30;98.30
5846;DHT22;2949;50.778;7.094;2022-09-13T16:05:18;25.30;98.60
5846;DHT22;2949;50.778;7.094;2022-09-13T16:07:44;25.10;99.40
5846;DHT22;2949;50.778;7.094;2022-09-13T16:10:12;25.10;99.70
5846;DHT22;2949;50.778;7.094;2022-09-13T16:12:39;25.00;99.90
5846;DHT22;2949;50.778;7.094;2022-09-13T16:15:05;24.90;99.90
5846;DHT22;2949;50.778;7.094;2022-09-13T16:17:30;24.70;99.90
5846;DHT22;2949;50.778;7.094;2022-09-13T16:19:56;24.50;99.90
5846;DHT22;2949;50.778;7.094;2022-09-13T16:22:22;24.30;99.90
5846;DHT22;2949;50.778;7.094;2022-09-13T16:24:48;24.20;99.90
5846;DHT22;2949;50.778;7.094;2022-09-13T16:27:15;24.00;99.90
5846;DHT22;2949;50.778;7.094;2022-09-13T16:29:41;23.90;99.90
5846;DHT22;2949;50.778;7.094;2022-09-13T16:32:07;23.70;99.90
5846;DHT22;2949;50.778;7.094;2022-09-13T16:34:33;23.50;99.90
5846;DHT22;2949;50.778;7.094;2022-09-13T16:36:59;23.40;99.90
5846;DHT22;2949;50.778;7.094;2022-09-13T16:39:25;23.20;99.90
5846;DHT22;2949;50.778;7.094;2022-09-13T16:41:50;23.00;99.90
5846;DHT22;2949;50.778;7.094;2022-09-13T16:44:16;22.80;99.90
5846;DHT22;2949;50.778;7.094;2022-09-13T16:46:42;22.60;99.90
5846;DHT22;2949;50.778;7.094;2022-09-13T16:49:08;22.50;99.90
5846;DHT22;2949;50.778;7.094;2022-09-13T16:51:34;22.30;99.90
5846;DHT22;2949;50.778;7.094;2022-09-13T16:54:00;22.10;99.90
5846;DHT22;2949;50.778;7.094;2022-09-13T16:56:27;22.00;99.90
5846;DHT22;2949;50.778;7.094;2022-09-13T16:58:52;21.90;99.90
5846;DHT22;2949;50.778;7.094;2022-09-13T17:01:24;21.70;99.90
5846;DHT22;2949;50.778;7.094;2022-09-13T17:03:50;21.60;99.90
5846;DHT22;2949;50.778;7.094;2022-09-13T17:06:17;21.50;99.90
5846;DHT22;2949;50.778;7.094;2022-09-13T17:08:59;21.40;99.90
5846;DHT22;2949;50.778;7.094;2022-09-13T17:11:29;21.20;99.90
5846;DHT22;2949;50.778;7.094;2022-09-13T17:13:55;21.10;99.90
5846;DHT22;2949;50.778;7.094;2022-09-13T17:16:31;21.00;99.90
5846;DHT22;2949;50.778;7.094;2022-09-13T17:18:59;20.90;99.90
5846;DHT22;2949;50.778;7.094;2022-09-13T17:21:25;20.90;99.90
5846;DHT22;2949;50.778;7.094;2022-09-13T17:23:52;20.70;99.90
5846;DHT22;2949;50.778;7.094;2022-09-13T17:26:17;20.70;99.90
5846;DHT22;2949;50.778;7.094;2022-09-13T17:28:43;20.60;99.90
5846;DHT22;2949;50.778;7.094;2022-09-13T17:31:08;20.50;99.90
5846;DHT22;2949;50.778;7.094;2022-09-13T17:33:34;20.40;99.90
5846;DHT22;2949;50.778;7.094;2022-09-13T17:36:05;20.50;99.90
5846;DHT22;2949;50.778;7.094;2022-09-13T17:38:35;20.40;99.90
5846;DHT22;2949;50.778;7.094;2022-09-13T17:41:04;20.40;99.90
5846;DHT22;2949;50.778;7.094;2022-09-13T17:43:30;20.30;99.90
5846;DHT22;2949;50.778;7.094;2022-09-13T17:45:56;20.30;99.90
5846;DHT22;2949;50.778;7.094;2022-09-13T17:48:22;20.30;99.90
5846;DHT22;2949;50.778;7.094;2022-09-13T17:50:47;20.20;99.90
5846;DHT22;2949;50.778;7.094;2022-09-13T17:53:13;20.20;99.90
5846;DHT22;2949;50.778;7.094;2022-09-13T17:55:46;20.20;99.90
5846;DHT22;2949;50.778;7.094;2022-09-13T17:58:11;20.20;99.90
5846;DHT22;2949;50.778;7.094;2022-09-13T18:00:37;20.20;99.90
5846;DHT22;2949;50.778;7.094;2022-09-13T18:03:02;20.10;99.90
5846;DHT22;2949;50.778;7.094;2022-09-13T18:05:28;20.20;99.90
5846;DHT22;2949;50.778;7.094;2022-09-13T18:07:53;20.20;99.90
5846;DHT22;2949;50.778;7.094;2022-09-13T18:10:19;20.20;99.90
5846;DHT22;2949;50.778;7.094;2022-09-13T18:12:45;20.20;99.90
5846;DHT22;2949;50.778;7.094;2022-09-13T18:15:10;20.20;99.90
5846;DHT22;2949;50.778;7.094;2022-09-13T18:17:36;20.20;99.90
5846;DHT22;2949;50.778;7.094;2022-09-13T18:20:02;20.10;99.90
5846;DHT22;2949;50.778;7.094;2022-09-13T18:22:28;20.10;99.90
5846;DHT22;2949;50.778;7.094;2022-09-13T18:24:53;20.00;99.90
5846;DHT22;2949;50.778;7.094;2022-09-13T18:27:19;20.00;99.90
5846;DHT22;2949;50.778;7.094;2022-09-13T18:29:45;19.90;99.90
5846;DHT22;2949;50.778;7.094;2022-09-13T18:32:11;19.90;99.90
5846;DHT22;2949;50.778;7.094;2022-09-13T18:34:36;19.90;99.90
5846;DHT22;2949;50.778;7.094;2022-09-13T18:37:02;19.90;99.90
5846;DHT22;2949;50.778;7.094;2022-09-13T18:39:27;19.80;99.90
5846;DHT22;2949;50.778;7.094;2022-09-13T18:41:53;19.80;99.90
5846;DHT22;2949;50.778;7.094;2022-09-13T18:44:18;19.80;99.90
5846;DHT22;2949;50.778;7.094;2022-09-13T18:46:44;19.80;99.90
5846;DHT22;2949;50.778;7.094;2022-09-13T18:49:11;19.80;99.90
5846;DHT22;2949;50.778;7.094;2022-09-13T18:51:39;19.80;99.90
5846;DHT22;2949;50.778;7.094;2022-09-13T18:54:06;19.80;99.90
5846;DHT22;2949;50.778;7.094;2022-09-13T18:56:32;19.70;99.90
5846;DHT22;2949;50.778;7.094;2022-09-13T18:59:00;19.70;99.90
5846;DHT22;2949;50.778;7.094;2022-09-13T19:01:31;19.70;99.90
5846;DHT22;2949;50.778;7.094;2022-09-13T19:04:00;19.60;99.90
5846;DHT22;2949;50.778;7.094;2022-09-13T19:06:27;19.60;99.90
5846;DHT22;2949;50.778;7.094;2022-09-13T19:08:54;19.50;99.90
5846;DHT22;2949;50.778;7.094;2022-09-13T19:11:21;19.50;99.90
5846;DHT22;2949;50.778;7.094;2022-09-13T19:13:48;19.40;99.90
5846;DHT22;2949;50.778;7.094;2022-09-13T19:16:15;19.40;99.90
5846;DHT22;2949;50.778;7.094;2022-09-13T19:18:43;19.30;99.90